sensor_id;sensor_type;location;lat;lon;timestamp;temperature;humidity
44431;DHT22;30135;47.866;-4.222;2023-03-11T00:00:36;8.60;98.40
44431;DHT22;30135;47.866;-4.222;2023-03-11T00:03:05;8.60;98.50
44431;DHT22;30135;47.866;-4.222;2023-03-11T00:05:36;8.60;98.60
44431;DHT22;30135;47.866;-4.222;2023-03-11T00:08:05;8.60;98.60
44431;DHT22;30135;47.866;-4.222;2023-03-11T00:10:41;8.60;98.70
44431;DHT22;30135;47.866;-4.222;2023-03-11T00:13:09;8.60;98.70
44431;DHT22;30135;47.866;-4.222;2023-03-11T00:15:37;8.70;98.70
44431;DHT22;30135;47.866;-4.222;2023-03-11T00:18:05;8.60;98.60
44431;DHT22;30135;47.866;-4.222;2023-03-11T00:20:34;8.60;98.60
44431;DHT22;30135;47.866;-4.222;2023-03-11T00:23:03;8.60;98.70
44431;DHT22;30135;47.866;-4.222;2023-03-11T00:25:34;8.70;98.90
44431;DHT22;30135;47.866;-4.222;2023-03-11T00:28:05;8.60;98.90
44431;DHT22;30135;47.866;-4.222;2023-03-11T00:30:40;8.70;98.90
44431;DHT22;30135;47.866;-4.222;2023-03-11T00:33:07;8.70;98.80
44431;DHT22;30135;47.866;-4.222;2023-03-11T00:35:35;8.70;98.80
44431;DHT22;30135;47.866;-4.222;2023-03-11T00:38:04;8.70;98.80
44431;DHT22;30135;47.866;-4.222;2023-03-11T00:40:33;8.70;99.00
44431;DHT22;30135;47.866;-4.222;2023-03-11T00:43:00;8.80;99.00
44431;DHT22;30135;47.866;-4.222;2023-03-11T00:45:27;8.80;99.00
44431;DHT22;30135;47.866;-4.222;2023-03-11T00:47:54;8.70;98.90
44431;DHT22;30135;47.866;-4.222;2023-03-11T00:50:23;8.70;98.80
44431;DHT22;30135;47.866;-4.222;2023-03-11T00:52:53;8.70;98.90
44431;DHT22;30135;47.866;-4.222;2023-03-11T00:55:25;8.70;99.00
44431;DHT22;30135;47.866;-4.222;2023-03-11T00:57:54;8.70;99.00
44431;DHT22;30135;47.866;-4.222;2023-03-11T01:00:23;8.70;99.00
44431;DHT22;30135;47.866;-4.222;2023-03-11T01:02:50;8.70;99.10
44431;DHT22;30135;47.866;-4.222;2023-03-11T01:05:20;8.70;99.10
44431;DHT22;30135;47.866;-4.222;2023-03-11T01:07:48;8.80;99.10
44431;DHT22;30135;47.866;-4.222;2023-03-11T01:10:15;8.80;99.10
44431;DHT22;30135;47.866;-4.222;2023-03-11T01:12:41;8.70;99.10
44431;DHT22;30135;47.866;-4.222;2023-03-11T01:15:19;8.80;99.20
44431;DHT22;30135;47.866;-4.222;2023-03-11T01:17:49;8.70;99.20
44431;DHT22;30135;47.866;-4.222;2023-03-11T01:20:16;8.70;99.20
44431;DHT22;30135;47.866;-4.222;2023-03-11T01:22:42;8.70;99.30
44431;DHT22;30135;47.866;-4.222;2023-03-11T01:25:13;8.80;99.50
44431;DHT22;30135;47.866;-4.222;2023-03-11T01:27:40;8.80;99.40
44431;DHT22;30135;47.866;-4.222;2023-03-11T01:30:07;8.80;99.30
44431;DHT22;30135;47.866;-4.222;2023-03-11T01:32:38;8.80;99.50
44431;DHT22;30135;47.866;-4.222;2023-03-11T01:35:04;8.80;99.40
44431;DHT22;30135;47.866;-4.222;2023-03-11T01:37:31;8.80;99.40
44431;DHT22;30135;47.866;-4.222;2023-03-11T01:39:57;8.80;99.40
44431;DHT22;30135;47.866;-4.222;2023-03-11T01:42:23;8.80;99.50
44431;DHT22;30135;47.866;-4.222;2023-03-11T01:44:49;8.80;99.50
44431;DHT22;30135;47.866;-4.222;2023-03-11T01:47:36;8.90;99.50
44431;DHT22;30135;47.866;-4.222;2023-03-11T01:50:07;8.90;99.60
44431;DHT22;30135;47.866;-4.222;2023-03-11T01:52:36;8.90;99.60
44431;DHT22;30135;47.866;-4.222;2023-03-11T01:55:03;8.90;99.60
44431;DHT22;30135;47.866;-4.222;2023-03-11T01:57:30;8.90;99.60
44431;DHT22;30135;47.866;-4.222;2023-03-11T01:59:58;9.00;99.70
44431;DHT22;30135;47.866;-4.222;2023-03-11T02:02:42;9.00;99.90
44431;DHT22;30135;47.866;-4.222;2023-03-11T02:05:14;9.00;99.80
44431;DHT22;30135;47.866;-4.222;2023-03-11T02:07:40;9.00;99.80
44431;DHT22;30135;47.866;-4.222;2023-03-11T02:10:07;9.00;99.80
44431;DHT22;30135;47.866;-4.222;2023-03-11T02:12:35;9.00;99.80
44431;DHT22;30135;47.866;-4.222;2023-03-11T02:15:04;9.00;99.80
44431;DHT22;30135;47.866;-4.222;2023-03-11T02:17:32;9.10;99.90
44431;DHT22;30135;47.866;-4.222;2023-03-11T02:20:11;9.10;99.90
44431;DHT22;30135;47.866;-4.222;2023-03-11T02:22:41;9.10;99.90
44431;DHT22;30135;47.866;-4.222;2023-03-11T02:25:26;9.10;99.90
44431;DHT22;30135;47.866;-4.222;2023-03-11T02:28:00;9.20;99.90
44431;DHT22;30135;47.866;-4.222;2023-03-11T02:30:28;9.20;99.90
44431;DHT22;30135;47.866;-4.222;2023-03-11T02:32:55;9.20;99.90
44431;DHT22;30135;47.866;-4.222;2023-03-11T02:35:22;9.20;99.90
44431;DHT22;30135;47.866;-4.222;2023-03-11T02:37:51;9.20;99.90
44431;DHT22;30135;47.866;-4.222;2023-03-11T02:42:57;9.20;99.90
44431;DHT22;30135;47.866;-4.222;2023-03-11T02:45:26;9.30;99.90
44431;DHT22;30135;47.866;-4.222;2023-03-11T02:47:54;9.30;99.90
44431;DHT22;30135;47.866;-4.222;2023-03-11T02:50:22;9.30;99.90
44431;DHT22;30135;47.866;-4.222;2023-03-11T02:52:50;9.30;99.90
44431;DHT22;30135;47.866;-4.222;2023-03-11T02:55:17;9.40;99.90
44431;DHT22;30135;47.866;-4.222;2023-03-11T02:57:48;9.40;99.90
44431;DHT22;30135;47.866;-4.222;2023-03-11T03:00:14;9.40;99.90
44431;DHT22;30135;47.866;-4.222;2023-03-11T03:02:43;9.40;99.90
44431;DHT22;30135;47.866;-4.222;2023-03-11T03:05:13;9.40;99.90
44431;DHT22;30135;47.866;-4.222;2023-03-11T03:07:39;9.40;99.90
44431;DHT22;30135;47.866;-4.222;2023-03-11T03:10:06;9.50;99.90
44431;DHT22;30135;47.866;-4.222;2023-03-11T03:12:32;9.50;99.90
44431;DHT22;30135;47.866;-4.222;2023-03-11T03:14:58;9.50;99.90
44431;DHT22;30135;47.866;-4.222;2023-03-11T03:17:25;9.50;99.90
44431;DHT22;30135;47.866;-4.222;2023-03-11T03:19:51;9.60;99.90
44431;DHT22;30135;47.866;-4.222;2023-03-11T03:22:17;9.60;99.90
44431;DHT22;30135;47.866;-4.222;2023-03-11T03:24:43;9.60;99.90
44431;DHT22;30135;47.866;-4.222;2023-03-11T03:27:09;9.70;99.90
44431;DHT22;30135;47.866;-4.222;2023-03-11T03:29:35;9.70;99.90
44431;DHT22;30135;47.866;-4.222;2023-03-11T03:32:01;9.70;99.90
44431;DHT22;30135;47.866;-4.222;2023-03-11T03:34:28;9.80;99.90
44431;DHT22;30135;47.866;-4.222;2023-03-11T03:36:54;9.80;99.90
44431;DHT22;30135;47.866;-4.222;2023-03-11T03:39:20;9.90;99.90
44431;DHT22;30135;47.866;-4.222;2023-03-11T03:41:46;9.90;99.90
44431;DHT22;30135;47.866;-4.222;2023-03-11T03:44:13;10.00;99.90
44431;DHT22;30135;47.866;-4.222;2023-03-11T03:46:39;10.10;99.90
44431;DHT22;30135;47.866;-4.222;2023-03-11T03:49:05;10.20;99.90
44431;DHT22;30135;47.866;-4.222;2023-03-11T03:51:31;10.40;99.90
44431;DHT22;30135;47.866;-4.222;2023-03-11T03:53:56;10.60;99.90
44431;DHT22;30135;47.866;-4.222;2023-03-11T03:56:22;10.70;99.90
44431;DHT22;30135;47.866;-4.222;2023-03-11T03:58:48;10.90;99.90
44431;DHT22;30135;47.866;-4.222;2023-03-11T04:01:14;11.00;99.90
44431;DHT22;30135;47.866;-4.222;2023-03-11T04:03:41;11.10;99.90
44431;DHT22;30135;47.866;-4.222;2023-03-11T04:06:09;11.20;99.90
44431;DHT22;30135;47.866;-4.222;2023-03-11T04:08:36;11.30;99.90
44431;DHT22;30135;47.866;-4.222;2023-03-11T04:11:02;11.40;99.90
44431;DHT22;30135;47.866;-4.222;2023-03-11T04:13:29;11.50;99.90
44431;DHT22;30135;47.866;-4.222;2023-03-11T04:15:55;11.50;99.90
44431;DHT22;30135;47.866;-4.222;2023-03-11T04:18:20;11.60;99.90
44431;DHT22;30135;47.866;-4.222;2023-03-11T04:20:47;11.70;99.90
44431;DHT22;30135;47.866;-4.222;2023-03-11T04:23:13;11.70;99.90
44431;DHT22;30135;47.866;-4.222;2023-03-11T04:25:39;11.80;99.90
44431;DHT22;30135;47.866;-4.222;2023-03-11T04:28:05;11.80;99.90
44431;DHT22;30135;47.866;-4.222;2023-03-11T04:30:31;11.90;99.90
44431;DHT22;30135;47.866;-4.222;2023-03-11T04:32:57;11.90;99.90
44431;DHT22;30135;47.866;-4.222;2023-03-11T04:35:23;12.00;99.90
44431;DHT22;30135;47.866;-4.222;2023-03-11T04:37:49;12.00;99.90
44431;DHT22;30135;47.866;-4.222;2023-03-11T04:40:15;12.10;99.90
44431;DHT22;30135;47.866;-4.222;2023-03-11T04:42:42;12.10;99.90
44431;DHT22;30135;47.866;-4.222;2023-03-11T04:45:08;12.10;99.90
44431;DHT22;30135;47.866;-4.222;2023-03-11T04:47:35;12.20;99.90
44431;DHT22;30135;47.866;-4.222;2023-03-11T04:50:02;12.20;99.90
44431;DHT22;30135;47.866;-4.222;2023-03-11T04:52:28;12.30;99.90
44431;DHT22;30135;47.866;-4.222;2023-03-11T04:54:54;12.30;99.90
44431;DHT22;30135;47.866;-4.222;2023-03-11T04:57:23;12.30;99.90
44431;DHT22;30135;47.866;-4.222;2023-03-11T04:59:49;12.30;99.90
44431;DHT22;30135;47.866;-4.222;2023-03-11T05:02:15;12.40;99.90
44431;DHT22;30135;47.866;-4.222;2023-03-11T05:04:41;12.40;99.90
44431;DHT22;30135;47.866;-4.222;2023-03-11T05:07:07;12.40;99.90
44431;DHT22;30135;47.866;-4.222;2023-03-11T05:09:34;12.40;99.90
44431;DHT22;30135;47.866;-4.222;2023-03-11T05:12:00;12.40;99.90
44431;DHT22;30135;47.866;-4.222;2023-03-11T05:14:26;12.50;99.90
44431;DHT22;30135;47.866;-4.222;2023-03-11T05:16:52;12.50;99.90
44431;DHT22;30135;47.866;-4.222;2023-03-11T05:19:18;12.50;99.90
44431;DHT22;30135;47.866;-4.222;2023-03-11T05:21:56;12.60;99.90
44431;DHT22;30135;47.866;-4.222;2023-03-11T05:24:23;12.60;99.90
44431;DHT22;30135;47.866;-4.222;2023-03-11T05:26:52;12.60;99.90
44431;DHT22;30135;47.866;-4.222;2023-03-11T05:29:18;12.60;99.90
44431;DHT22;30135;47.866;-4.222;2023-03-11T05:31:45;12.60;99.90
44431;DHT22;30135;47.866;-4.222;2023-03-11T05:34:12;12.60;99.90
44431;DHT22;30135;47.866;-4.222;2023-03-11T05:36:38;12.70;99.90
44431;DHT22;30135;47.866;-4.222;2023-03-11T05:39:04;12.70;99.90
44431;DHT22;30135;47.866;-4.222;2023-03-11T05:41:30;12.70;99.90
44431;DHT22;30135;47.866;-4.222;2023-03-11T05:43:56;12.70;99.90
44431;DHT22;30135;47.866;-4.222;2023-03-11T05:46:22;12.70;99.90
44431;DHT22;30135;47.866;-4.222;2023-03-11T05:48:48;12.70;99.90
44431;DHT22;30135;47.866;-4.222;2023-03-11T05:51:14;12.70;99.90
44431;DHT22;30135;47.866;-4.222;2023-03-11T05:53:47;12.70;99.90
44431;DHT22;30135;47.866;-4.222;2023-03-11T05:56:18;12.80;99.90
44431;DHT22;30135;47.866;-4.222;2023-03-11T05:58:45;12.80;99.90
44431;DHT22;30135;47.866;-4.222;2023-03-11T06:01:15;12.80;99.90
44431;DHT22;30135;47.866;-4.222;2023-03-11T06:03:43;12.80;99.90
44431;DHT22;30135;47.866;-4.222;2023-03-11T06:06:10;12.80;99.90
44431;DHT22;30135;47.866;-4.222;2023-03-11T06:08:38;12.80;99.90
44431;DHT22;30135;47.866;-4.222;2023-03-11T06:11:10;12.80;99.90
44431;DHT22;30135;47.866;-4.222;2023-03-11T06:13:37;12.80;99.90
44431;DHT22;30135;47.866;-4.222;2023-03-11T06:16:04;12.80;99.90
44431;DHT22;30135;47.866;-4.222;2023-03-11T06:18:30;12.90;99.90
44431;DHT22;30135;47.866;-4.222;2023-03-11T06:20:57;12.80;99.90
44431;DHT22;30135;47.866;-4.222;2023-03-11T06:23:24;12.90;99.90
44431;DHT22;30135;47.866;-4.222;2023-03-11T06:25:59;12.90;99.90
44431;DHT22;30135;47.866;-4.222;2023-03-11T06:28:26;12.90;99.90
44431;DHT22;30135;47.866;-4.222;2023-03-11T06:30:53;12.90;99.90
44431;DHT22;30135;47.866;-4.222;2023-03-11T06:33:22;12.90;99.90
44431;DHT22;30135;47.866;-4.222;2023-03-11T06:35:59;12.90;99.90
44431;DHT22;30135;47.866;-4.222;2023-03-11T06:38:26;12.90;99.90
44431;DHT22;30135;47.866;-4.222;2023-03-11T06:40:52;12.90;99.90
44431;DHT22;30135;47.866;-4.222;2023-03-11T06:43:18;12.90;99.90
44431;DHT22;30135;47.866;-4.222;2023-03-11T06:45:46;12.90;99.90
44431;DHT22;30135;47.866;-4.222;2023-03-11T06:48:12;12.90;99.90
44431;DHT22;30135;47.866;-4.222;2023-03-11T06:50:38;12.90;99.90
44431;DHT22;30135;47.866;-4.222;2023-03-11T06:53:04;12.90;99.90
44431;DHT22;30135;47.866;-4.222;2023-03-11T06:55:34;12.90;99.90
44431;DHT22;30135;47.866;-4.222;2023-03-11T06:58:00;12.90;99.90
44431;DHT22;30135;47.866;-4.222;2023-03-11T07:00:26;12.90;99.90
44431;DHT22;30135;47.866;-4.222;2023-03-11T07:02:53;12.90;99.90
44431;DHT22;30135;47.866;-4.222;2023-03-11T07:05:19;13.00;99.90
44431;DHT22;30135;47.866;-4.222;2023-03-11T07:07:45;13.00;99.90
44431;DHT22;30135;47.866;-4.222;2023-03-11T07:10:11;13.00;99.90
44431;DHT22;30135;47.866;-4.222;2023-03-11T07:12:37;13.00;99.90
44431;DHT22;30135;47.866;-4.222;2023-03-11T07:15:03;13.00;99.90
44431;DHT22;30135;47.866;-4.222;2023-03-11T07:17:30;13.00;99.90
44431;DHT22;30135;47.866;-4.222;2023-03-11T07:19:57;13.00;99.90
44431;DHT22;30135;47.866;-4.222;2023-03-11T07:22:23;13.00;99.90
44431;DHT22;30135;47.866;-4.222;2023-03-11T07:24:49;13.00;99.90
44431;DHT22;30135;47.866;-4.222;2023-03-11T07:27:15;13.00;99.90
44431;DHT22;30135;47.866;-4.222;2023-03-11T07:29:41;13.00;99.90
44431;DHT22;30135;47.866;-4.222;2023-03-11T07:32:07;13.00;99.90
44431;DHT22;30135;47.866;-4.222;2023-03-11T07:34:34;13.10;99.90
44431;DHT22;30135;47.866;-4.222;2023-03-11T07:37:00;13.10;99.90
44431;DHT22;30135;47.866;-4.222;2023-03-11T07:39:26;13.10;99.90
44431;DHT22;30135;47.866;-4.222;2023-03-11T07:41:52;13.10;99.90
44431;DHT22;30135;47.866;-4.222;2023-03-11T07:44:18;13.10;99.90
44431;DHT22;30135;47.866;-4.222;2023-03-11T07:46:44;13.10;99.90
44431;DHT22;30135;47.866;-4.222;2023-03-11T07:49:11;13.10;99.90
44431;DHT22;30135;47.866;-4.222;2023-03-11T07:51:38;13.10;99.90
44431;DHT22;30135;47.866;-4.222;2023-03-11T07:54:09;13.10;99.90
44431;DHT22;30135;47.866;-4.222;2023-03-11T07:56:36;13.10;99.90
44431;DHT22;30135;47.866;-4.222;2023-03-11T07:59:03;13.10;99.90
44431;DHT22;30135;47.866;-4.222;2023-03-11T08:01:31;13.20;99.90
44431;DHT22;30135;47.866;-4.222;2023-03-11T08:04:02;13.20;99.90
44431;DHT22;30135;47.866;-4.222;2023-03-11T08:06:31;13.10;99.90
44431;DHT22;30135;47.866;-4.222;2023-03-11T08:09:03;13.20;99.90
44431;DHT22;30135;47.866;-4.222;2023-03-11T08:11:31;13.20;99.90
44431;DHT22;30135;47.866;-4.222;2023-03-11T08:13:57;13.20;99.90
44431;DHT22;30135;47.866;-4.222;2023-03-11T08:16:24;13.20;99.90
44431;DHT22;30135;47.866;-4.222;2023-03-11T08:18:51;13.20;99.90
44431;DHT22;30135;47.866;-4.222;2023-03-11T08:21:19;13.20;99.90
44431;DHT22;30135;47.866;-4.222;2023-03-11T08:23:51;13.20;99.90
44431;DHT22;30135;47.866;-4.222;2023-03-11T08:26:20;13.20;99.90
44431;DHT22;30135;47.866;-4.222;2023-03-11T08:28:47;13.20;99.90
44431;DHT22;30135;47.866;-4.222;2023-03-11T08:31:24;13.30;99.90
44431;DHT22;30135;47.866;-4.222;2023-03-11T08:33:57;13.20;99.90
44431;DHT22;30135;47.866;-4.222;2023-03-11T08:36:31;13.30;99.90
44431;DHT22;30135;47.866;-4.222;2023-03-11T08:38:58;13.30;99.90
44431;DHT22;30135;47.866;-4.222;2023-03-11T08:41:25;13.30;99.90
44431;DHT22;30135;47.866;-4.222;2023-03-11T08:43:51;13.30;99.90
44431;DHT22;30135;47.866;-4.222;2023-03-11T08:46:26;13.30;99.90
44431;DHT22;30135;47.866;-4.222;2023-03-11T08:48:57;13.30;99.90
44431;DHT22;30135;47.866;-4.222;2023-03-11T08:51:24;13.30;99.90
44431;DHT22;30135;47.866;-4.222;2023-03-11T08:54:05;13.30;99.90
44431;DHT22;30135;47.866;-4.222;2023-03-11T08:56:38;13.40;99.90
44431;DHT22;30135;47.866;-4.222;2023-03-11T08:59:04;13.40;99.90
44431;DHT22;30135;47.866;-4.222;2023-03-11T09:01:30;13.40;99.90
44431;DHT22;30135;47.866;-4.222;2023-03-11T09:03:56;13.40;99.90
44431;DHT22;30135;47.866;-4.222;2023-03-11T09:06:22;13.40;99.90
44431;DHT22;30135;47.866;-4.222;2023-03-11T09:08:49;13.40;99.90
44431;DHT22;30135;47.866;-4.222;2023-03-11T09:11:16;13.40;99.90
44431;DHT22;30135;47.866;-4.222;2023-03-11T09:13:43;13.40;99.90
44431;DHT22;30135;47.866;-4.222;2023-03-11T09:16:13;13.50;99.90
44431;DHT22;30135;47.866;-4.222;2023-03-11T09:18:41;13.50;99.90
44431;DHT22;30135;47.866;-4.222;2023-03-11T09:21:07;13.50;99.90
44431;DHT22;30135;47.866;-4.222;2023-03-11T09:23:34;13.50;99.90
44431;DHT22;30135;47.866;-4.222;2023-03-11T09:26:06;13.50;99.90
44431;DHT22;30135;47.866;-4.222;2023-03-11T09:28:32;13.50;99.90
44431;DHT22;30135;47.866;-4.222;2023-03-11T09:30:58;13.50;99.90
44431;DHT22;30135;47.866;-4.222;2023-03-11T09:33:24;13.50;99.90
44431;DHT22;30135;47.866;-4.222;2023-03-11T09:35:50;13.50;99.90
44431;DHT22;30135;47.866;-4.222;2023-03-11T09:38:16;13.50;99.90
44431;DHT22;30135;47.866;-4.222;2023-03-11T09:43:57;13.60;99.90
44431;DHT22;30135;47.866;-4.222;2023-03-11T09:46:49;13.60;99.90
44431;DHT22;30135;47.866;-4.222;2023-03-11T09:49:44;13.60;99.90
44431;DHT22;30135;47.866;-4.222;2023-03-11T09:52:55;13.60;99.90
44431;DHT22;30135;47.866;-4.222;2023-03-11T09:55:52;13.60;99.90
44431;DHT22;30135;47.866;-4.222;2023-03-11T09:58:44;13.60;99.90
44431;DHT22;30135;47.866;-4.222;2023-03-11T10:04:12;13.70;99.90
44431;DHT22;30135;47.866;-4.222;2023-03-11T10:06:43;13.60;99.90
44431;DHT22;30135;47.866;-4.222;2023-03-11T10:09:36;13.70;99.90
44431;DHT22;30135;47.866;-4.222;2023-03-11T10:15:11;13.70;99.90
44431;DHT22;30135;47.866;-4.222;2023-03-11T10:27:14;13.80;99.90
44431;DHT22;30135;47.866;-4.222;2023-03-11T10:35:52;13.80;99.90
44431;DHT22;30135;47.866;-4.222;2023-03-11T10:38:25;13.80;99.90
44431;DHT22;30135;47.866;-4.222;2023-03-11T10:41:05;13.80;99.90
44431;DHT22;30135;47.866;-4.222;2023-03-11T10:44:36;13.80;99.90
44431;DHT22;30135;47.866;-4.222;2023-03-11T10:47:02;13.80;99.90
44431;DHT22;30135;47.866;-4.222;2023-03-11T10:49:29;13.80;99.90
44431;DHT22;30135;47.866;-4.222;2023-03-11T10:51:55;13.80;99.90
44431;DHT22;30135;47.866;-4.222;2023-03-11T10:54:33;13.80;99.90
44431;DHT22;30135;47.866;-4.222;2023-03-11T10:57:24;13.90;99.90
44431;DHT22;30135;47.866;-4.222;2023-03-11T10:59:56;13.90;99.90
44431;DHT22;30135;47.866;-4.222;2023-03-11T11:02:47;13.90;99.90
44431;DHT22;30135;47.866;-4.222;2023-03-11T11:07:48;13.90;99.90
44431;DHT22;30135;47.866;-4.222;2023-03-11T11:10:26;13.90;99.90
44431;DHT22;30135;47.866;-4.222;2023-03-11T11:13:01;13.90;99.90
44431;DHT22;30135;47.866;-4.222;2023-03-11T11:15:34;13.90;99.90
44431;DHT22;30135;47.866;-4.222;2023-03-11T11:18:03;14.00;99.90
44431;DHT22;30135;47.866;-4.222;2023-03-11T11:20:32;14.00;99.90
44431;DHT22;30135;47.866;-4.222;2023-03-11T11:23:01;14.00;99.90
44431;DHT22;30135;47.866;-4.222;2023-03-11T11:25:34;14.00;99.90
44431;DHT22;30135;47.866;-4.222;2023-03-11T11:31:03;14.00;99.90
44431;DHT22;30135;47.866;-4.222;2023-03-11T11:33:52;14.00;99.90
44431;DHT22;30135;47.866;-4.222;2023-03-11T11:36:22;14.00;99.90
44431;DHT22;30135;47.866;-4.222;2023-03-11T11:38:52;14.00;99.90
44431;DHT22;30135;47.866;-4.222;2023-03-11T11:41:22;14.00;99.90
44431;DHT22;30135;47.866;-4.222;2023-03-11T11:46:39;14.00;99.90
44431;DHT22;30135;47.866;-4.222;2023-03-11T11:49:27;14.00;99.90
44431;DHT22;30135;47.866;-4.222;2023-03-11T11:52:17;14.00;99.90
44431;DHT22;30135;47.866;-4.222;2023-03-11T11:55:01;14.00;99.90
44431;DHT22;30135;47.866;-4.222;2023-03-11T11:57:31;14.00;99.90
44431;DHT22;30135;47.866;-4.222;2023-03-11T11:59:58;14.00;99.90
44431;DHT22;30135;47.866;-4.222;2023-03-11T12:05:26;14.00;99.90
44431;DHT22;30135;47.866;-4.222;2023-03-11T12:14:14;14.00;99.90
44431;DHT22;30135;47.866;-4.222;2023-03-11T12:17:00;14.10;99.90
44431;DHT22;30135;47.866;-4.222;2023-03-11T12:19:41;14.10;99.90
44431;DHT22;30135;47.866;-4.222;2023-03-11T12:31:15;14.10;99.90
44431;DHT22;30135;47.866;-4.222;2023-03-11T12:33:47;14.10;99.90
44431;DHT22;30135;47.866;-4.222;2023-03-11T12:36:32;14.10;99.90
44431;DHT22;30135;47.866;-4.222;2023-03-11T12:39:05;14.10;99.90
44431;DHT22;30135;47.866;-4.222;2023-03-11T12:41:37;14.10;99.90
44431;DHT22;30135;47.866;-4.222;2023-03-11T12:44:26;14.10;99.90
44431;DHT22;30135;47.866;-4.222;2023-03-11T12:47:01;14.10;99.90
44431;DHT22;30135;47.866;-4.222;2023-03-11T12:49:34;14.10;99.90
44431;DHT22;30135;47.866;-4.222;2023-03-11T12:54:45;14.10;99.90
44431;DHT22;30135;47.866;-4.222;2023-03-11T12:57:42;14.10;99.90
44431;DHT22;30135;47.866;-4.222;2023-03-11T13:03:31;14.20;99.90
44431;DHT22;30135;47.866;-4.222;2023-03-11T13:06:46;14.20;99.90
44431;DHT22;30135;47.866;-4.222;2023-03-11T13:09:29;14.20;99.90
44431;DHT22;30135;47.866;-4.222;2023-03-11T13:11:55;14.20;99.90
44431;DHT22;30135;47.866;-4.222;2023-03-11T13:16:55;14.20;99.90
44431;DHT22;30135;47.866;-4.222;2023-03-11T13:21:55;14.20;99.90
44431;DHT22;30135;47.866;-4.222;2023-03-11T13:40:55;14.30;99.90
44431;DHT22;30135;47.866;-4.222;2023-03-11T13:43:23;14.30;99.90
44431;DHT22;30135;47.866;-4.222;2023-03-11T13:48:32;14.30;99.90
44431;DHT22;30135;47.866;-4.222;2023-03-11T13:54:01;14.30;99.90
44431;DHT22;30135;47.866;-4.222;2023-03-11T13:56:42;14.30;99.90
44431;DHT22;30135;47.866;-4.222;2023-03-11T13:59:25;14.30;99.90
44431;DHT22;30135;47.866;-4.222;2023-03-11T14:01:59;14.30;99.90
44431;DHT22;30135;47.866;-4.222;2023-03-11T14:04:31;14.30;99.90
44431;DHT22;30135;47.866;-4.222;2023-03-11T14:07:00;14.30;99.90
44431;DHT22;30135;47.866;-4.222;2023-03-11T14:12:37;14.30;99.90
44431;DHT22;30135;47.866;-4.222;2023-03-11T14:15:05;14.30;99.90
44431;DHT22;30135;47.866;-4.222;2023-03-11T14:17:33;14.30;99.90
44431;DHT22;30135;47.866;-4.222;2023-03-11T14:22:46;14.40;99.90
44431;DHT22;30135;47.866;-4.222;2023-03-11T14:25:25;14.40;99.90
44431;DHT22;30135;47.866;-4.222;2023-03-11T14:28:17;14.40;99.90
44431;DHT22;30135;47.866;-4.222;2023-03-11T14:31:05;14.40;99.90
44431;DHT22;30135;47.866;-4.222;2023-03-11T14:33:31;14.40;99.90
44431;DHT22;30135;47.866;-4.222;2023-03-11T14:36:05;14.40;99.90
44431;DHT22;30135;47.866;-4.222;2023-03-11T14:38:41;14.40;99.90
44431;DHT22;30135;47.866;-4.222;2023-03-11T14:41:12;14.40;99.90
44431;DHT22;30135;47.866;-4.222;2023-03-11T14:43:42;14.40;99.90
44431;DHT22;30135;47.866;-4.222;2023-03-11T14:46:19;14.40;99.90
44431;DHT22;30135;47.866;-4.222;2023-03-11T14:48:47;14.40;99.90
44431;DHT22;30135;47.866;-4.222;2023-03-11T14:51:18;14.40;99.90
44431;DHT22;30135;47.866;-4.222;2023-03-11T14:54:01;14.50;99.90
44431;DHT22;30135;47.866;-4.222;2023-03-11T14:56:30;14.40;99.90
44431;DHT22;30135;47.866;-4.222;2023-03-11T14:59:20;14.50;99.90
44431;DHT22;30135;47.866;-4.222;2023-03-11T15:01:51;14.40;99.90
44431;DHT22;30135;47.866;-4.222;2023-03-11T15:04:38;14.50;99.90
44431;DHT22;30135;47.866;-4.222;2023-03-11T15:07:08;14.40;99.90
44431;DHT22;30135;47.866;-4.222;2023-03-11T15:09:38;14.40;99.90
44431;DHT22;30135;47.866;-4.222;2023-03-11T15:12:06;14.40;99.90
44431;DHT22;30135;47.866;-4.222;2023-03-11T15:14:34;14.40;99.90
44431;DHT22;30135;47.866;-4.222;2023-03-11T15:19:46;14.40;99.90
44431;DHT22;30135;47.866;-4.222;2023-03-11T15:22:31;14.40;99.90
44431;DHT22;30135;47.866;-4.222;2023-03-11T15:25:18;14.40;99.90
44431;DHT22;30135;47.866;-4.222;2023-03-11T15:27:45;14.40;99.90
44431;DHT22;30135;47.866;-4.222;2023-03-11T15:30:28;14.40;99.90
44431;DHT22;30135;47.866;-4.222;2023-03-11T15:32:56;14.40;99.90
44431;DHT22;30135;47.866;-4.222;2023-03-11T15:35:28;14.40;99.90
44431;DHT22;30135;47.866;-4.222;2023-03-11T15:38:30;14.40;99.90
44431;DHT22;30135;47.866;-4.222;2023-03-11T15:40:58;14.40;99.90
44431;DHT22;30135;47.866;-4.222;2023-03-11T15:43:31;14.30;99.90
44431;DHT22;30135;47.866;-4.222;2023-03-11T15:46:01;14.30;99.90
44431;DHT22;30135;47.866;-4.222;2023-03-11T15:48:28;14.30;99.90
44431;DHT22;30135;47.866;-4.222;2023-03-11T15:50:59;14.30;99.90
44431;DHT22;30135;47.866;-4.222;2023-03-11T15:53:26;14.30;99.90
44431;DHT22;30135;47.866;-4.222;2023-03-11T15:55:57;14.30;99.90
44431;DHT22;30135;47.866;-4.222;2023-03-11T15:58:25;14.30;99.90
44431;DHT22;30135;47.866;-4.222;2023-03-11T16:00:54;14.30;99.90
44431;DHT22;30135;47.866;-4.222;2023-03-11T16:03:21;14.30;99.90
44431;DHT22;30135;47.866;-4.222;2023-03-11T16:05:48;14.30;99.90
44431;DHT22;30135;47.866;-4.222;2023-03-11T16:08:14;14.30;99.90
44431;DHT22;30135;47.866;-4.222;2023-03-11T16:10:41;14.30;99.90
44431;DHT22;30135;47.866;-4.222;2023-03-11T16:13:13;14.30;99.90
44431;DHT22;30135;47.866;-4.222;2023-03-11T16:15:48;14.30;99.90
44431;DHT22;30135;47.866;-4.222;2023-03-11T16:18:14;14.30;99.90
44431;DHT22;30135;47.866;-4.222;2023-03-11T16:23:20;14.30;99.90
44431;DHT22;30135;47.866;-4.222;2023-03-11T16:25:47;14.30;99.90
44431;DHT22;30135;47.866;-4.222;2023-03-11T16:28:14;14.30;99.90
44431;DHT22;30135;47.866;-4.222;2023-03-11T16:30:41;14.30;99.90
44431;DHT22;30135;47.866;-4.222;2023-03-11T16:33:08;14.30;99.90
44431;DHT22;30135;47.866;-4.222;2023-03-11T16:35:34;14.30;99.90
44431;DHT22;30135;47.866;-4.222;2023-03-11T16:38:00;14.30;99.90
44431;DHT22;30135;47.866;-4.222;2023-03-11T16:40:27;14.30;99.90
44431;DHT22;30135;47.866;-4.222;2023-03-11T16:43:02;14.20;99.90
44431;DHT22;30135;47.866;-4.222;2023-03-11T16:45:30;14.30;99.90
44431;DHT22;30135;47.866;-4.222;2023-03-11T16:47:56;14.20;99.90
44431;DHT22;30135;47.866;-4.222;2023-03-11T16:50:22;14.20;99.90
44431;DHT22;30135;47.866;-4.222;2023-03-11T16:52:55;14.20;99.90
44431;DHT22;30135;47.866;-4.222;2023-03-11T16:55:22;14.20;99.90
44431;DHT22;30135;47.866;-4.222;2023-03-11T16:57:49;14.20;99.90
44431;DHT22;30135;47.866;-4.222;2023-03-11T17:00:16;14.20;99.90
44431;DHT22;30135;47.866;-4.222;2023-03-11T17:02:43;14.20;99.90
44431;DHT22;30135;47.866;-4.222;2023-03-11T17:05:09;14.20;99.90
44431;DHT22;30135;47.866;-4.222;2023-03-11T17:07:36;14.20;99.90
44431;DHT22;30135;47.866;-4.222;2023-03-11T17:10:03;14.20;99.90
44431;DHT22;30135;47.866;-4.222;2023-03-11T17:12:30;14.20;99.90
44431;DHT22;30135;47.866;-4.222;2023-03-11T17:14:56;14.10;99.90
44431;DHT22;30135;47.866;-4.222;2023-03-11T17:17:22;14.10;99.90